Duncan, OK

5:42 AM CDT on April 25, 2017 (GMT -0500)
Halliburton

Weather History for KDUC - February, 2013

Change the Weather History Date:

Friday, February 15, 2013

  Actual Average (KLAW) Record (KLAW)
Temperature  
Mean Temperature 39 °F -  
Max Temperature 46 °F 55 °F 83 °F (1954)
Min Temperature 32 °F 30 °F 15 °F (2007)
Degree Days  
Heating Degree Days 26    
Moisture  
Dew Point 26 °F    
Average Humidity 61    
Maximum Humidity 81    
Minimum Humidity 37    
Precipitation  
Precipitation 0.00 in - - ()
Sea Level Pressure  
Sea Level Pressure 30.34 in    
Wind  
Wind Speed 13 mph (NNE)    
Max Wind Speed 20 mph    
Max Gust Speed 31 mph    
Visibility 10 miles    
Events      
Averages and records for this station are not official NWS values.
T = Trace of Precipitation, MM = Missing Value Source: NWS Daily Summary

Daily Weather History Graph

Daily Weather History Graph

Search for Another Location

Airport or City:

Trip Planner

Search our weather history database for the weather conditions in past years. The results will help you decide how hot, cold, wet, or windy it might be!

Date:

Astronomy

Feb. 15, 2013 Rise Set
Actual Time 7:16 AM CST 6:15 PM CST
Civil Twilight 6:51 AM CST 6:41 PM CST
Nautical Twilight 6:21 AM CST 7:10 PM CST
Astronomical Twilight 5:52 AM CST 7:39 PM CST
Moon 10:10 AM CST (2/15) 11:59 PM CST (2/15)
Length of Visible Light 11h 50m
Length of Day
10h 58m
Waxing Crescent, 30% of the Moon is Illuminated
Feb 15
Waxing Crescent
Feb 17
First Quarter
Feb 25
Full
Mar 4
Last Quarter
Mar 11
New

Hourly Weather History & Observations

Time (CST) Temp. Windchill Dew Point Humidity Pressure Visibility Wind Dir Wind Speed Gust Speed Precip Events Conditions
12:15 AM 46.4 °F 39.0 °F 35.6 °F 66% 30.21 in 10.0 mi NNE 19.6 mph 31.1 mph N/A   Mostly Cloudy
12:35 AM 44.6 °F 36.6 °F 35.6 °F 71% 30.21 in 10.0 mi NNE 19.6 mph 27.6 mph N/A   Mostly Cloudy
12:55 AM 44.6 °F 36.9 °F 37.4 °F 76% 30.22 in 10.0 mi North 18.4 mph 26.5 mph N/A   Scattered Clouds
1:15 AM 44.6 °F 37.2 °F 37.4 °F 76% 30.24 in 10.0 mi NNE 17.3 mph 24.2 mph N/A   Mostly Cloudy
1:35 AM 44.6 °F 37.8 °F 37.4 °F 76% 30.25 in 10.0 mi NNE 15.0 mph 23.0 mph N/A   Overcast
1:55 AM 44.6 °F 37.8 °F 37.4 °F 76% 30.26 in 10.0 mi NNE 15.0 mph 20.7 mph N/A   Overcast
2:15 AM 44.6 °F 36.9 °F 35.6 °F 71% 30.26 in 10.0 mi NNE 18.4 mph 26.5 mph N/A   Overcast
2:35 AM 44.6 °F 38.1 °F 35.6 °F 71% 30.27 in 10.0 mi NNE 13.8 mph 19.6 mph N/A   Overcast
2:55 AM 44.6 °F 38.1 °F 35.6 °F 71% 30.27 in 10.0 mi North 13.8 mph 20.7 mph N/A   Mostly Cloudy
3:15 AM 42.8 °F 34.5 °F 35.6 °F 76% 30.27 in 10.0 mi North 18.4 mph 24.2 mph N/A   Mostly Cloudy
3:35 AM 42.8 °F 34.8 °F 35.6 °F 76% 30.27 in 10.0 mi North 17.3 mph 20.7 mph N/A   Scattered Clouds
3:55 AM 41.0 °F 34.7 °F 35.6 °F 81% 30.27 in 10.0 mi North 10.4 mph 21.9 mph N/A   Scattered Clouds
4:15 AM 41.0 °F 34.3 °F 35.6 °F 81% 30.27 in 10.0 mi North 11.5 mph 18.4 mph N/A   Clear
4:35 AM 41.0 °F 34.3 °F 33.8 °F 76% 30.28 in 10.0 mi NNE 11.5 mph 16.1 mph N/A   Clear
4:55 AM 39.2 °F 31.6 °F 32.0 °F 75% 30.29 in 10.0 mi NNE 12.7 mph - N/A   Clear
5:15 AM 39.2 °F 31.6 °F 28.4 °F 65% 30.29 in 10.0 mi NNE 12.7 mph 19.6 mph N/A   Clear
5:35 AM 37.4 °F 28.5 °F 26.6 °F 65% 30.31 in 10.0 mi NNE 15.0 mph 20.7 mph N/A   Clear
5:55 AM 37.4 °F 28.9 °F 26.6 °F 65% 30.31 in 10.0 mi NNE 13.8 mph 17.3 mph N/A   Clear
6:15 AM 35.6 °F 27.5 °F 26.6 °F 70% 30.32 in 10.0 mi NNE 11.5 mph - N/A   Clear
6:35 AM 35.6 °F 28.0 °F 28.4 °F 75% 30.32 in 10.0 mi NNE 10.4 mph - N/A   Scattered Clouds
6:55 AM 35.6 °F 27.5 °F 28.4 °F 75% 30.33 in 10.0 mi NNE 11.5 mph - N/A   Mostly Cloudy
7:15 AM 35.6 °F 27.5 °F 28.4 °F 75% 30.34 in 10.0 mi NNE 11.5 mph - N/A   Overcast
7:35 AM 35.6 °F 28.0 °F 26.6 °F 70% 30.36 in 10.0 mi North 10.4 mph - N/A   Overcast
7:55 AM 35.6 °F 27.5 °F 26.6 °F 70% 30.36 in 10.0 mi NNE 11.5 mph - N/A   Overcast
8:15 AM 33.8 °F 23.2 °F 26.6 °F 75% 30.37 in 10.0 mi NNE 17.3 mph - N/A   Overcast
8:35 AM 33.8 °F 24.3 °F 26.6 °F 75% 30.38 in 10.0 mi NNE 13.8 mph - N/A   Overcast
8:55 AM 35.6 °F 27.1 °F 26.6 °F 70% 30.39 in 10.0 mi NNE 12.7 mph - N/A   Overcast
9:15 AM 35.6 °F 27.1 °F 26.6 °F 70% 30.40 in 10.0 mi NNE 12.7 mph 17.3 mph N/A   Overcast
9:35 AM 37.4 °F 29.3 °F 24.8 °F 60% 30.41 in 10.0 mi NNE 12.7 mph 16.1 mph N/A   Mostly Cloudy
9:55 AM 37.4 °F 28.5 °F 24.8 °F 60% 30.41 in 10.0 mi NNE 15.0 mph - N/A   Mostly Cloudy
10:15 AM 35.6 °F 27.1 °F 24.8 °F 65% 30.41 in 10.0 mi NNE 12.7 mph - N/A   Overcast
10:35 AM 37.4 °F 29.3 °F 26.6 °F 65% 30.42 in 10.0 mi NNE 12.7 mph 16.1 mph N/A   Mostly Cloudy
10:55 AM 37.4 °F 29.3 °F 24.8 °F 60% 30.42 in 10.0 mi NNE 12.7 mph - N/A   Scattered Clouds
11:15 AM 37.4 °F 30.8 °F 24.8 °F 60% 30.42 in 10.0 mi North 9.2 mph 17.3 mph N/A   Mostly Cloudy
11:55 AM 41.0 °F 36.4 °F 24.8 °F 53% 30.41 in 10.0 mi NNE 6.9 mph - N/A   Overcast
12:15 PM 41.0 °F 34.7 °F 23.0 °F 49% 30.41 in 10.0 mi North 10.4 mph - N/A   Mostly Cloudy
12:35 PM 41.0 °F 34.3 °F 23.0 °F 49% 30.40 in 10.0 mi NNE 11.5 mph - N/A   Scattered Clouds
12:55 PM 42.8 °F 36.2 °F 23.0 °F 46% 30.39 in 10.0 mi NNE 12.7 mph 17.3 mph N/A   Scattered Clouds
1:15 PM 42.8 °F 37.0 °F 23.0 °F 46% 30.38 in 10.0 mi NNW 10.4 mph - N/A   Mostly Cloudy
1:35 PM 42.8 °F 37.0 °F 23.0 °F 46% 30.37 in 10.0 mi North 10.4 mph - N/A   Mostly Cloudy
1:55 PM 42.8 °F 37.0 °F 23.0 °F 46% 30.37 in 10.0 mi North 10.4 mph - N/A   Scattered Clouds
2:15 PM 42.8 °F 37.0 °F 21.2 °F 42% 30.37 in 10.0 mi North 10.4 mph - N/A   Scattered Clouds
2:35 PM 42.8 °F 38.0 °F 21.2 °F 42% 30.36 in 10.0 mi North 8.1 mph - N/A   Scattered Clouds
2:55 PM 44.6 °F 39.2 °F 19.4 °F 37% 30.36 in 10.0 mi North 10.4 mph 16.1 mph N/A   Scattered Clouds
3:15 PM 42.8 °F 37.0 °F 21.2 °F 42% 30.36 in 10.0 mi North 10.4 mph 16.1 mph N/A   Scattered Clouds
3:35 PM 42.8 °F 36.6 °F 19.4 °F 39% 30.36 in 10.0 mi North 11.5 mph 17.3 mph N/A   Scattered Clouds
3:55 PM 42.8 °F 36.6 °F 19.4 °F 39% 30.36 in 10.0 mi North 11.5 mph - N/A   Scattered Clouds
4:15 PM 44.6 °F 38.8 °F 21.2 °F 39% 30.36 in 10.0 mi North 11.5 mph 17.3 mph N/A   Scattered Clouds
4:35 PM 44.6 °F 39.2 °F 19.4 °F 37% 30.36 in 10.0 mi NNE 10.4 mph 19.6 mph N/A   Mostly Cloudy
4:55 PM 44.6 °F 39.7 °F 19.4 °F 37% 30.36 in 10.0 mi North 9.2 mph 18.4 mph N/A   Scattered Clouds
5:15 PM 44.6 °F 38.8 °F 19.4 °F 37% 30.36 in 10.0 mi NNW 11.5 mph - N/A   Clear
5:35 PM 42.8 °F 38.6 °F 19.4 °F 39% 30.36 in 10.0 mi North 6.9 mph - N/A   Clear
5:55 PM 42.8 °F 40.1 °F 21.2 °F 42% 30.36 in 10.0 mi North 4.6 mph - N/A   Clear
6:15 PM 41.0 °F 39.0 °F 21.2 °F 45% 30.36 in 10.0 mi NNW 3.5 mph - N/A   Clear
6:35 PM 39.2 °F 35.0 °F 21.2 °F 49% 30.36 in 10.0 mi North 5.8 mph - N/A   Clear
6:55 PM 37.4 °F 34.9 °F 19.4 °F 48% 30.36 in 10.0 mi NNE 3.5 mph - N/A   Clear
7:15 PM 37.4 °F 34.9 °F 19.4 °F 48% 30.36 in 10.0 mi NNE 3.5 mph - N/A   Clear
7:35 PM 37.4 °F 34.9 °F 19.4 °F 48% 30.37 in 10.0 mi North 3.5 mph - N/A   Clear
7:55 PM 37.4 °F - 21.2 °F 52% 30.37 in 10.0 mi Calm Calm - N/A   Clear
8:15 PM 35.6 °F - 21.2 °F 56% 30.36 in 10.0 mi Calm Calm - N/A   Clear
8:35 PM 33.8 °F - 23.0 °F 65% 30.36 in 10.0 mi Calm Calm - N/A   Clear
8:55 PM 32.0 °F - 23.0 °F 69% 30.36 in 10.0 mi Calm Calm - N/A   Clear
9:15 PM 32.0 °F - 23.0 °F 69% 30.36 in 10.0 mi Calm Calm - N/A   Clear
9:35 PM 33.8 °F - 23.0 °F 65% 30.36 in 10.0 mi Calm Calm - N/A   Clear
9:55 PM 32.0 °F - 24.8 °F 75% 30.37 in 10.0 mi Calm Calm - N/A   Clear
10:15 PM 32.0 °F - 24.8 °F 75% 30.37 in 10.0 mi Calm Calm - N/A   Clear
10:35 PM 32.0 °F 28.7 °F 24.8 °F 75% 30.37 in 10.0 mi ENE 3.5 mph - N/A   Mostly Cloudy
10:55 PM 33.8 °F - 26.6 °F 75% 30.37 in 10.0 mi Calm Calm - N/A   Overcast
11:15 PM 33.8 °F 30.8 °F 28.4 °F 81% 30.38 in 10.0 mi NW 3.5 mph - N/A   Overcast
11:35 PM 32.0 °F 28.7 °F 26.6 °F 80% 30.38 in 10.0 mi WNW 3.5 mph - N/A   Mostly Cloudy
11:55 PM 33.8 °F 30.8 °F 26.6 °F 75% 30.38 in 10.0 mi WNW 3.5 mph - N/A   Scattered Clouds